sensor_id;sensor_type;location;lat;lon;timestamp;P1;durP1;ratioP1;P2;durP2;ratioP2
42478;SDS011;28110;47.080;9.476;2023-04-24T00:01:27;3.93;;;0.60;;
42478;SDS011;28110;47.080;9.476;2023-04-24T00:03:54;2.70;;;0.68;;
42478;SDS011;28110;47.080;9.476;2023-04-24T00:06:21;2.30;;;0.40;;
42478;SDS011;28110;47.080;9.476;2023-04-24T00:08:48;2.17;;;0.50;;
42478;SDS011;28110;47.080;9.476;2023-04-24T00:11:14;0.97;;;0.47;;
42478;SDS011;28110;47.080;9.476;2023-04-24T00:13:39;2.50;;;0.40;;
42478;SDS011;28110;47.080;9.476;2023-04-24T00:16:05;1.60;;;0.50;;
42478;SDS011;28110;47.080;9.476;2023-04-24T00:18:30;0.93;;;0.40;;
42478;SDS011;28110;47.080;9.476;2023-04-24T00:20:56;0.93;;;0.40;;
42478;SDS011;28110;47.080;9.476;2023-04-24T00:23:21;0.63;;;0.40;;
42478;SDS011;28110;47.080;9.476;2023-04-24T00:25:47;2.10;;;0.40;;
42478;SDS011;28110;47.080;9.476;2023-04-24T00:28:12;0.30;;;0.30;;
42478;SDS011;28110;47.080;9.476;2023-04-24T00:30:38;0.80;;;0.32;;
42478;SDS011;28110;47.080;9.476;2023-04-24T00:33:04;0.40;;;0.30;;
42478;SDS011;28110;47.080;9.476;2023-04-24T00:35:30;0.40;;;0.40;;
42478;SDS011;28110;47.080;9.476;2023-04-24T00:37:55;1.40;;;0.60;;
42478;SDS011;28110;47.080;9.476;2023-04-24T00:40:21;1.38;;;0.60;;
42478;SDS011;28110;47.080;9.476;2023-04-24T00:42:47;0.83;;;0.40;;
42478;SDS011;28110;47.080;9.476;2023-04-24T00:45:13;1.88;;;0.40;;
42478;SDS011;28110;47.080;9.476;2023-04-24T00:47:39;1.27;;;0.38;;
42478;SDS011;28110;47.080;9.476;2023-04-24T00:50:06;0.73;;;0.37;;
42478;SDS011;28110;47.080;9.476;2023-04-24T00:52:32;0.40;;;0.40;;
42478;SDS011;28110;47.080;9.476;2023-04-24T00:54:58;1.55;;;0.30;;
42478;SDS011;28110;47.080;9.476;2023-04-24T00:57:24;0.27;;;0.27;;
42478;SDS011;28110;47.080;9.476;2023-04-24T00:59:50;0.70;;;0.30;;
42478;SDS011;28110;47.080;9.476;2023-04-24T01:02:17;0.32;;;0.25;;
42478;SDS011;28110;47.080;9.476;2023-04-24T01:04:43;0.30;;;0.30;;
42478;SDS011;28110;47.080;9.476;2023-04-24T01:07:08;0.63;;;0.30;;
42478;SDS011;28110;47.080;9.476;2023-04-24T01:09:37;0.30;;;0.30;;
42478;SDS011;28110;47.080;9.476;2023-04-24T01:12:04;2.80;;;0.40;;
42478;SDS011;28110;47.080;9.476;2023-04-24T01:14:30;3.30;;;0.30;;
42478;SDS011;28110;47.080;9.476;2023-04-24T01:16:56;0.52;;;0.30;;
42478;SDS011;28110;47.080;9.476;2023-04-24T01:19:22;0.20;;;0.20;;
42478;SDS011;28110;47.080;9.476;2023-04-24T01:21:48;0.53;;;0.30;;
42478;SDS011;28110;47.080;9.476;2023-04-24T01:24:18;0.90;;;0.50;;
42478;SDS011;28110;47.080;9.476;2023-04-24T01:26:44;0.20;;;0.20;;
42478;SDS011;28110;47.080;9.476;2023-04-24T01:29:10;0.20;;;0.20;;
42478;SDS011;28110;47.080;9.476;2023-04-24T01:31:36;0.32;;;0.20;;
42478;SDS011;28110;47.080;9.476;2023-04-24T01:34:03;0.20;;;0.20;;
42478;SDS011;28110;47.080;9.476;2023-04-24T01:36:29;1.15;;;0.20;;
42478;SDS011;28110;47.080;9.476;2023-04-24T01:38:56;0.20;;;0.20;;
42478;SDS011;28110;47.080;9.476;2023-04-24T01:41:22;0.25;;;0.25;;
42478;SDS011;28110;47.080;9.476;2023-04-24T01:43:48;1.05;;;0.30;;
42478;SDS011;28110;47.080;9.476;2023-04-24T01:46:14;0.20;;;0.20;;
42478;SDS011;28110;47.080;9.476;2023-04-24T01:48:40;1.40;;;0.30;;
42478;SDS011;28110;47.080;9.476;2023-04-24T01:51:06;2.28;;;0.30;;
42478;SDS011;28110;47.080;9.476;2023-04-24T01:53:32;0.27;;;0.27;;
42478;SDS011;28110;47.080;9.476;2023-04-24T01:55:57;0.45;;;0.30;;
42478;SDS011;28110;47.080;9.476;2023-04-24T01:58:23;0.33;;;0.30;;
42478;SDS011;28110;47.080;9.476;2023-04-24T02:00:49;0.20;;;0.20;;
42478;SDS011;28110;47.080;9.476;2023-04-24T02:03:14;1.17;;;0.20;;
42478;SDS011;28110;47.080;9.476;2023-04-24T02:05:40;0.20;;;0.20;;
42478;SDS011;28110;47.080;9.476;2023-04-24T02:08:09;0.60;;;0.20;;
42478;SDS011;28110;47.080;9.476;2023-04-24T02:10:35;0.20;;;0.20;;
42478;SDS011;28110;47.080;9.476;2023-04-24T02:13:00;0.17;;;0.17;;
42478;SDS011;28110;47.080;9.476;2023-04-24T02:15:26;1.40;;;0.20;;
42478;SDS011;28110;47.080;9.476;2023-04-24T02:17:52;0.20;;;0.20;;
42478;SDS011;28110;47.080;9.476;2023-04-24T02:20:17;0.52;;;0.20;;
42478;SDS011;28110;47.080;9.476;2023-04-24T02:22:43;0.40;;;0.20;;
42478;SDS011;28110;47.080;9.476;2023-04-24T02:25:08;1.50;;;0.20;;
42478;SDS011;28110;47.080;9.476;2023-04-24T02:27:34;1.05;;;0.20;;
42478;SDS011;28110;47.080;9.476;2023-04-24T02:29:59;0.20;;;0.13;;
42478;SDS011;28110;47.080;9.476;2023-04-24T02:32:25;1.55;;;0.50;;
42478;SDS011;28110;47.080;9.476;2023-04-24T02:34:51;1.70;;;0.30;;
42478;SDS011;28110;47.080;9.476;2023-04-24T02:37:16;0.33;;;0.20;;
42478;SDS011;28110;47.080;9.476;2023-04-24T02:39:42;0.55;;;0.30;;
42478;SDS011;28110;47.080;9.476;2023-04-24T02:42:07;0.17;;;0.17;;
42478;SDS011;28110;47.080;9.476;2023-04-24T02:44:33;0.20;;;0.20;;
42478;SDS011;28110;47.080;9.476;2023-04-24T02:46:58;0.20;;;0.20;;
42478;SDS011;28110;47.080;9.476;2023-04-24T02:49:24;0.33;;;0.20;;
42478;SDS011;28110;47.080;9.476;2023-04-24T02:51:50;1.55;;;0.20;;
42478;SDS011;28110;47.080;9.476;2023-04-24T02:54:16;0.30;;;0.30;;
42478;SDS011;28110;47.080;9.476;2023-04-24T02:56:42;0.30;;;0.30;;
42478;SDS011;28110;47.080;9.476;2023-04-24T02:59:07;0.22;;;0.20;;
42478;SDS011;28110;47.080;9.476;2023-04-24T03:01:33;0.20;;;0.20;;
42478;SDS011;28110;47.080;9.476;2023-04-24T03:03:58;0.73;;;0.30;;
42478;SDS011;28110;47.080;9.476;2023-04-24T03:06:24;0.50;;;0.35;;
42478;SDS011;28110;47.080;9.476;2023-04-24T03:08:49;0.40;;;0.30;;
42478;SDS011;28110;47.080;9.476;2023-04-24T03:11:15;0.57;;;0.52;;
42478;SDS011;28110;47.080;9.476;2023-04-24T03:13:40;0.55;;;0.25;;
42478;SDS011;28110;47.080;9.476;2023-04-24T03:16:06;0.33;;;0.30;;
42478;SDS011;28110;47.080;9.476;2023-04-24T03:18:31;0.33;;;0.30;;
42478;SDS011;28110;47.080;9.476;2023-04-24T03:20:57;0.30;;;0.20;;
42478;SDS011;28110;47.080;9.476;2023-04-24T03:23:23;0.30;;;0.30;;
42478;SDS011;28110;47.080;9.476;2023-04-24T03:25:48;0.20;;;0.20;;
42478;SDS011;28110;47.080;9.476;2023-04-24T03:28:14;1.38;;;0.30;;
42478;SDS011;28110;47.080;9.476;2023-04-24T03:30:39;0.77;;;0.20;;
42478;SDS011;28110;47.080;9.476;2023-04-24T03:33:05;1.05;;;0.25;;
42478;SDS011;28110;47.080;9.476;2023-04-24T03:35:30;1.20;;;0.30;;
42478;SDS011;28110;47.080;9.476;2023-04-24T03:37:56;1.80;;;0.30;;
42478;SDS011;28110;47.080;9.476;2023-04-24T03:40:21;0.47;;;0.30;;
42478;SDS011;28110;47.080;9.476;2023-04-24T03:42:47;1.13;;;0.20;;
42478;SDS011;28110;47.080;9.476;2023-04-24T03:45:12;0.83;;;0.30;;
42478;SDS011;28110;47.080;9.476;2023-04-24T03:47:38;0.20;;;0.20;;
42478;SDS011;28110;47.080;9.476;2023-04-24T03:50:04;0.20;;;0.20;;
42478;SDS011;28110;47.080;9.476;2023-04-24T03:52:30;0.30;;;0.15;;
42478;SDS011;28110;47.080;9.476;2023-04-24T03:54:55;0.47;;;0.20;;
42478;SDS011;28110;47.080;9.476;2023-04-24T03:57:21;0.30;;;0.30;;
42478;SDS011;28110;47.080;9.476;2023-04-24T03:59:46;0.68;;;0.35;;
42478;SDS011;28110;47.080;9.476;2023-04-24T04:02:12;1.13;;;0.40;;
42478;SDS011;28110;47.080;9.476;2023-04-24T04:04:37;0.22;;;0.22;;
42478;SDS011;28110;47.080;9.476;2023-04-24T04:07:03;1.98;;;0.22;;
42478;SDS011;28110;47.080;9.476;2023-04-24T04:09:30;0.35;;;0.20;;
42478;SDS011;28110;47.080;9.476;2023-04-24T04:11:56;0.40;;;0.20;;
42478;SDS011;28110;47.080;9.476;2023-04-24T04:14:21;0.95;;;0.40;;
42478;SDS011;28110;47.080;9.476;2023-04-24T04:16:48;0.75;;;0.20;;
42478;SDS011;28110;47.080;9.476;2023-04-24T04:19:13;1.27;;;0.30;;
42478;SDS011;28110;47.080;9.476;2023-04-24T04:21:39;0.97;;;0.33;;
42478;SDS011;28110;47.080;9.476;2023-04-24T04:24:04;1.10;;;0.30;;
42478;SDS011;28110;47.080;9.476;2023-04-24T04:26:30;1.40;;;0.30;;
42478;SDS011;28110;47.080;9.476;2023-04-24T04:28:57;0.63;;;0.20;;
42478;SDS011;28110;47.080;9.476;2023-04-24T04:31:23;0.20;;;0.20;;
42478;SDS011;28110;47.080;9.476;2023-04-24T04:33:49;0.13;;;0.13;;
42478;SDS011;28110;47.080;9.476;2023-04-24T04:36:15;0.40;;;0.20;;
42478;SDS011;28110;47.080;9.476;2023-04-24T04:38:42;0.30;;;0.30;;
42478;SDS011;28110;47.080;9.476;2023-04-24T04:41:07;0.20;;;0.20;;
42478;SDS011;28110;47.080;9.476;2023-04-24T04:43:33;1.53;;;0.30;;
42478;SDS011;28110;47.080;9.476;2023-04-24T04:45:59;0.30;;;0.30;;
42478;SDS011;28110;47.080;9.476;2023-04-24T04:48:25;0.40;;;0.30;;
42478;SDS011;28110;47.080;9.476;2023-04-24T04:50:52;0.30;;;0.30;;
42478;SDS011;28110;47.080;9.476;2023-04-24T04:53:17;0.40;;;0.30;;
42478;SDS011;28110;47.080;9.476;2023-04-24T04:55:43;0.32;;;0.30;;
42478;SDS011;28110;47.080;9.476;2023-04-24T04:58:08;0.30;;;0.30;;
42478;SDS011;28110;47.080;9.476;2023-04-24T05:00:34;1.23;;;0.27;;
42478;SDS011;28110;47.080;9.476;2023-04-24T05:03:02;0.40;;;0.20;;
42478;SDS011;28110;47.080;9.476;2023-04-24T05:05:28;0.20;;;0.20;;
42478;SDS011;28110;47.080;9.476;2023-04-24T05:07:53;0.93;;;0.27;;
42478;SDS011;28110;47.080;9.476;2023-04-24T05:10:19;1.30;;;0.40;;
42478;SDS011;28110;47.080;9.476;2023-04-24T05:12:45;2.00;;;0.30;;
42478;SDS011;28110;47.080;9.476;2023-04-24T05:15:10;0.53;;;0.37;;
42478;SDS011;28110;47.080;9.476;2023-04-24T05:17:36;0.35;;;0.30;;
42478;SDS011;28110;47.080;9.476;2023-04-24T05:20:02;0.20;;;0.20;;
42478;SDS011;28110;47.080;9.476;2023-04-24T05:22:30;0.30;;;0.30;;
42478;SDS011;28110;47.080;9.476;2023-04-24T05:24:56;0.93;;;0.30;;
42478;SDS011;28110;47.080;9.476;2023-04-24T05:27:22;1.33;;;0.30;;
42478;SDS011;28110;47.080;9.476;2023-04-24T05:29:47;3.45;;;0.50;;
42478;SDS011;28110;47.080;9.476;2023-04-24T05:32:13;3.23;;;0.40;;
42478;SDS011;28110;47.080;9.476;2023-04-24T05:34:38;0.30;;;0.20;;
42478;SDS011;28110;47.080;9.476;2023-04-24T05:37:04;0.93;;;0.30;;
42478;SDS011;28110;47.080;9.476;2023-04-24T05:39:33;5.70;;;1.00;;
42478;SDS011;28110;47.080;9.476;2023-04-24T05:41:59;0.65;;;0.38;;
42478;SDS011;28110;47.080;9.476;2023-04-24T05:44:26;6.53;;;0.50;;
42478;SDS011;28110;47.080;9.476;2023-04-24T05:46:51;0.30;;;0.30;;
42478;SDS011;28110;47.080;9.476;2023-04-24T05:49:17;0.90;;;0.38;;
42478;SDS011;28110;47.080;9.476;2023-04-24T05:51:42;3.33;;;0.77;;
42478;SDS011;28110;47.080;9.476;2023-04-24T05:54:08;2.73;;;0.40;;
42478;SDS011;28110;47.080;9.476;2023-04-24T05:56:34;4.60;;;0.40;;
42478;SDS011;28110;47.080;9.476;2023-04-24T05:58:59;0.23;;;0.20;;
42478;SDS011;28110;47.080;9.476;2023-04-24T06:01:25;1.53;;;0.30;;
42478;SDS011;28110;47.080;9.476;2023-04-24T06:03:50;1.40;;;0.40;;
42478;SDS011;28110;47.080;9.476;2023-04-24T06:06:17;0.95;;;0.32;;
42478;SDS011;28110;47.080;9.476;2023-04-24T06:08:44;1.05;;;0.40;;
42478;SDS011;28110;47.080;9.476;2023-04-24T06:11:10;4.93;;;0.45;;
42478;SDS011;28110;47.080;9.476;2023-04-24T06:13:35;0.77;;;0.40;;
42478;SDS011;28110;47.080;9.476;2023-04-24T06:16:01;0.40;;;0.30;;
42478;SDS011;28110;47.080;9.476;2023-04-24T06:18:26;0.80;;;0.50;;
42478;SDS011;28110;47.080;9.476;2023-04-24T06:20:52;1.70;;;0.37;;
42478;SDS011;28110;47.080;9.476;2023-04-24T06:23:17;0.30;;;0.30;;
42478;SDS011;28110;47.080;9.476;2023-04-24T06:25:43;0.93;;;0.40;;
42478;SDS011;28110;47.080;9.476;2023-04-24T06:28:08;1.50;;;0.50;;
42478;SDS011;28110;47.080;9.476;2023-04-24T06:30:34;0.77;;;0.30;;
42478;SDS011;28110;47.080;9.476;2023-04-24T06:33:00;0.65;;;0.32;;
42478;SDS011;28110;47.080;9.476;2023-04-24T06:35:25;1.00;;;0.60;;
42478;SDS011;28110;47.080;9.476;2023-04-24T06:37:51;1.37;;;0.63;;
42478;SDS011;28110;47.080;9.476;2023-04-24T06:40:16;2.08;;;0.60;;
42478;SDS011;28110;47.080;9.476;2023-04-24T06:42:43;1.10;;;0.60;;
42478;SDS011;28110;47.080;9.476;2023-04-24T06:45:09;1.08;;;0.70;;
42478;SDS011;28110;47.080;9.476;2023-04-24T06:47:35;0.65;;;0.60;;
42478;SDS011;28110;47.080;9.476;2023-04-24T06:50:01;0.60;;;0.60;;
42478;SDS011;28110;47.080;9.476;2023-04-24T06:52:26;2.55;;;0.80;;
42478;SDS011;28110;47.080;9.476;2023-04-24T06:54:52;1.17;;;0.67;;
42478;SDS011;28110;47.080;9.476;2023-04-24T06:57:24;1.58;;;0.80;;
42478;SDS011;28110;47.080;9.476;2023-04-24T06:59:50;3.67;;;1.70;;
42478;SDS011;28110;47.080;9.476;2023-04-24T07:02:15;1.47;;;1.20;;
42478;SDS011;28110;47.080;9.476;2023-04-24T07:04:41;0.55;;;0.45;;
42478;SDS011;28110;47.080;9.476;2023-04-24T07:07:06;1.17;;;0.40;;
42478;SDS011;28110;47.080;9.476;2023-04-24T07:09:34;1.48;;;0.40;;
42478;SDS011;28110;47.080;9.476;2023-04-24T07:12:03;0.60;;;0.40;;
42478;SDS011;28110;47.080;9.476;2023-04-24T07:14:29;0.40;;;0.40;;
42478;SDS011;28110;47.080;9.476;2023-04-24T07:16:54;1.10;;;0.33;;
42478;SDS011;28110;47.080;9.476;2023-04-24T07:19:21;0.45;;;0.45;;
42478;SDS011;28110;47.080;9.476;2023-04-24T07:21:47;2.05;;;0.60;;
42478;SDS011;28110;47.080;9.476;2023-04-24T07:24:13;2.93;;;0.90;;
42478;SDS011;28110;47.080;9.476;2023-04-24T07:26:38;1.57;;;0.87;;
42478;SDS011;28110;47.080;9.476;2023-04-24T07:29:04;1.85;;;1.00;;
42478;SDS011;28110;47.080;9.476;2023-04-24T07:31:30;1.48;;;0.88;;
42478;SDS011;28110;47.080;9.476;2023-04-24T07:33:56;1.30;;;0.83;;
42478;SDS011;28110;47.080;9.476;2023-04-24T07:36:23;3.08;;;1.00;;
42478;SDS011;28110;47.080;9.476;2023-04-24T07:38:49;1.88;;;0.90;;
42478;SDS011;28110;47.080;9.476;2023-04-24T07:41:14;1.23;;;0.73;;
42478;SDS011;28110;47.080;9.476;2023-04-24T07:43:40;1.05;;;0.80;;
42478;SDS011;28110;47.080;9.476;2023-04-24T07:46:07;2.33;;;0.87;;
42478;SDS011;28110;47.080;9.476;2023-04-24T07:48:33;2.92;;;1.27;;
42478;SDS011;28110;47.080;9.476;2023-04-24T07:50:59;3.10;;;1.45;;
42478;SDS011;28110;47.080;9.476;2023-04-24T07:53:24;0.63;;;0.40;;
42478;SDS011;28110;47.080;9.476;2023-04-24T07:55:50;0.60;;;0.30;;
42478;SDS011;28110;47.080;9.476;2023-04-24T07:58:15;2.15;;;0.60;;
42478;SDS011;28110;47.080;9.476;2023-04-24T08:00:41;0.50;;;0.40;;
42478;SDS011;28110;47.080;9.476;2023-04-24T08:03:06;0.90;;;0.50;;
42478;SDS011;28110;47.080;9.476;2023-04-24T08:05:32;0.65;;;0.40;;
42478;SDS011;28110;47.080;9.476;2023-04-24T08:07:58;0.60;;;0.30;;
42478;SDS011;28110;47.080;9.476;2023-04-24T08:10:23;0.65;;;0.40;;
42478;SDS011;28110;47.080;9.476;2023-04-24T08:12:50;0.80;;;0.43;;
42478;SDS011;28110;47.080;9.476;2023-04-24T08:15:16;2.43;;;0.50;;
42478;SDS011;28110;47.080;9.476;2023-04-24T08:17:41;7.80;;;0.50;;
42478;SDS011;28110;47.080;9.476;2023-04-24T08:20:08;2.30;;;0.33;;
42478;SDS011;28110;47.080;9.476;2023-04-24T08:22:38;1.50;;;0.52;;
42478;SDS011;28110;47.080;9.476;2023-04-24T08:25:04;1.50;;;0.88;;
42478;SDS011;28110;47.080;9.476;2023-04-24T08:27:31;1.95;;;1.23;;
42478;SDS011;28110;47.080;9.476;2023-04-24T08:29:56;3.33;;;1.10;;
42478;SDS011;28110;47.080;9.476;2023-04-24T08:32:23;4.32;;;1.05;;
42478;SDS011;28110;47.080;9.476;2023-04-24T08:34:49;1.87;;;0.63;;
42478;SDS011;28110;47.080;9.476;2023-04-24T08:37:15;2.50;;;1.30;;
42478;SDS011;28110;47.080;9.476;2023-04-24T08:39:40;4.80;;;1.65;;
42478;SDS011;28110;47.080;9.476;2023-04-24T08:42:06;1.60;;;1.20;;
42478;SDS011;28110;47.080;9.476;2023-04-24T08:44:33;1.02;;;0.80;;
42478;SDS011;28110;47.080;9.476;2023-04-24T08:47:01;2.85;;;1.00;;
42478;SDS011;28110;47.080;9.476;2023-04-24T08:49:28;4.33;;;0.90;;
42478;SDS011;28110;47.080;9.476;2023-04-24T08:51:54;1.42;;;1.08;;
42478;SDS011;28110;47.080;9.476;2023-04-24T08:54:20;1.10;;;0.90;;
42478;SDS011;28110;47.080;9.476;2023-04-24T08:56:46;1.20;;;0.83;;
42478;SDS011;28110;47.080;9.476;2023-04-24T08:59:14;2.35;;;1.10;;
42478;SDS011;28110;47.080;9.476;2023-04-24T09:01:40;1.30;;;1.20;;
42478;SDS011;28110;47.080;9.476;2023-04-24T09:04:07;2.28;;;1.08;;
42478;SDS011;28110;47.080;9.476;2023-04-24T09:06:37;1.08;;;0.85;;
42478;SDS011;28110;47.080;9.476;2023-04-24T09:09:03;0.47;;;0.40;;
42478;SDS011;28110;47.080;9.476;2023-04-24T09:11:30;1.30;;;0.40;;
42478;SDS011;28110;47.080;9.476;2023-04-24T09:14:00;1.48;;;0.60;;
42478;SDS011;28110;47.080;9.476;2023-04-24T09:16:26;0.68;;;0.50;;
42478;SDS011;28110;47.080;9.476;2023-04-24T09:18:52;0.50;;;0.50;;
42478;SDS011;28110;47.080;9.476;2023-04-24T09:21:19;0.40;;;0.40;;
42478;SDS011;28110;47.080;9.476;2023-04-24T09:23:46;2.38;;;0.50;;
42478;SDS011;28110;47.080;9.476;2023-04-24T09:26:11;0.73;;;0.50;;
42478;SDS011;28110;47.080;9.476;2023-04-24T09:28:41;0.77;;;0.50;;
42478;SDS011;28110;47.080;9.476;2023-04-24T09:31:12;0.52;;;0.50;;
42478;SDS011;28110;47.080;9.476;2023-04-24T09:33:39;0.30;;;0.30;;
42478;SDS011;28110;47.080;9.476;2023-04-24T09:36:05;2.93;;;0.60;;
42478;SDS011;28110;47.080;9.476;2023-04-24T09:38:38;1.55;;;0.50;;
42478;SDS011;28110;47.080;9.476;2023-04-24T09:41:06;1.40;;;0.50;;
42478;SDS011;28110;47.080;9.476;2023-04-24T09:43:37;1.70;;;0.50;;
42478;SDS011;28110;47.080;9.476;2023-04-24T09:46:06;2.63;;;0.40;;
42478;SDS011;28110;47.080;9.476;2023-04-24T09:48:34;0.88;;;0.40;;
42478;SDS011;28110;47.080;9.476;2023-04-24T09:51:02;0.70;;;0.55;;
42478;SDS011;28110;47.080;9.476;2023-04-24T09:53:29;2.28;;;0.40;;
42478;SDS011;28110;47.080;9.476;2023-04-24T09:55:55;0.65;;;0.55;;
42478;SDS011;28110;47.080;9.476;2023-04-24T09:58:26;1.48;;;0.80;;
42478;SDS011;28110;47.080;9.476;2023-04-24T10:00:53;3.08;;;0.50;;
42478;SDS011;28110;47.080;9.476;2023-04-24T10:03:20;0.88;;;0.50;;
42478;SDS011;28110;47.080;9.476;2023-04-24T10:05:45;4.75;;;1.40;;
42478;SDS011;28110;47.080;9.476;2023-04-24T10:08:12;1.38;;;0.50;;
42478;SDS011;28110;47.080;9.476;2023-04-24T10:10:39;0.50;;;0.50;;
42478;SDS011;28110;47.080;9.476;2023-04-24T10:13:07;0.80;;;0.63;;
42478;SDS011;28110;47.080;9.476;2023-04-24T10:15:34;2.40;;;0.70;;
42478;SDS011;28110;47.080;9.476;2023-04-24T10:18:00;3.38;;;0.80;;
42478;SDS011;28110;47.080;9.476;2023-04-24T10:20:29;1.80;;;0.60;;
42478;SDS011;28110;47.080;9.476;2023-04-24T10:22:56;1.95;;;0.50;;
42478;SDS011;28110;47.080;9.476;2023-04-24T10:25:24;0.98;;;0.52;;
42478;SDS011;28110;47.080;9.476;2023-04-24T10:27:52;2.58;;;0.70;;
42478;SDS011;28110;47.080;9.476;2023-04-24T10:30:22;1.08;;;0.50;;
42478;SDS011;28110;47.080;9.476;2023-04-24T10:32:47;0.80;;;0.60;;
42478;SDS011;28110;47.080;9.476;2023-04-24T10:35:13;1.13;;;0.70;;
42478;SDS011;28110;47.080;9.476;2023-04-24T10:37:42;2.00;;;0.75;;
42478;SDS011;28110;47.080;9.476;2023-04-24T10:40:10;0.60;;;0.50;;
42478;SDS011;28110;47.080;9.476;2023-04-24T10:42:40;1.92;;;0.70;;
42478;SDS011;28110;47.080;9.476;2023-04-24T10:45:18;1.63;;;0.73;;
42478;SDS011;28110;47.080;9.476;2023-04-24T10:47:54;3.03;;;0.95;;
42478;SDS011;28110;47.080;9.476;2023-04-24T10:50:27;1.88;;;0.60;;
42478;SDS011;28110;47.080;9.476;2023-04-24T10:52:55;1.47;;;0.60;;
42478;SDS011;28110;47.080;9.476;2023-04-24T10:55:42;0.93;;;0.30;;
42478;SDS011;28110;47.080;9.476;2023-04-24T10:58:11;0.93;;;0.50;;
42478;SDS011;28110;47.080;9.476;2023-04-24T11:00:38;0.70;;;0.60;;
42478;SDS011;28110;47.080;9.476;2023-04-24T11:03:05;1.48;;;0.93;;
42478;SDS011;28110;47.080;9.476;2023-04-24T11:08:21;0.77;;;0.60;;
42478;SDS011;28110;47.080;9.476;2023-04-24T11:13:24;1.48;;;0.70;;
42478;SDS011;28110;47.080;9.476;2023-04-24T11:19:01;1.53;;;0.80;;
42478;SDS011;28110;47.080;9.476;2023-04-24T11:21:40;0.60;;;0.50;;
42478;SDS011;28110;47.080;9.476;2023-04-24T11:27:13;1.85;;;0.50;;
42478;SDS011;28110;47.080;9.476;2023-04-24T11:29:46;0.70;;;0.50;;
42478;SDS011;28110;47.080;9.476;2023-04-24T11:32:25;0.50;;;0.50;;
42478;SDS011;28110;47.080;9.476;2023-04-24T11:34:56;0.57;;;0.40;;
42478;SDS011;28110;47.080;9.476;2023-04-24T11:37:27;0.77;;;0.50;;
42478;SDS011;28110;47.080;9.476;2023-04-24T11:39:55;1.00;;;0.40;;
42478;SDS011;28110;47.080;9.476;2023-04-24T11:42:22;0.82;;;0.60;;
42478;SDS011;28110;47.080;9.476;2023-04-24T11:44:49;0.60;;;0.40;;
42478;SDS011;28110;47.080;9.476;2023-04-24T11:47:15;2.67;;;0.30;;
42478;SDS011;28110;47.080;9.476;2023-04-24T11:49:41;1.05;;;0.40;;
42478;SDS011;28110;47.080;9.476;2023-04-24T11:52:06;2.93;;;0.60;;
42478;SDS011;28110;47.080;9.476;2023-04-24T11:54:32;0.97;;;0.40;;
42478;SDS011;28110;47.080;9.476;2023-04-24T11:56:57;0.80;;;0.55;;
42478;SDS011;28110;47.080;9.476;2023-04-24T11:59:23;0.90;;;0.40;;
42478;SDS011;28110;47.080;9.476;2023-04-24T12:01:49;1.95;;;0.50;;
42478;SDS011;28110;47.080;9.476;2023-04-24T12:04:16;0.75;;;0.50;;
42478;SDS011;28110;47.080;9.476;2023-04-24T12:09:28;1.13;;;0.57;;
42478;SDS011;28110;47.080;9.476;2023-04-24T12:11:54;0.70;;;0.50;;
42478;SDS011;28110;47.080;9.476;2023-04-24T12:14:23;0.60;;;0.50;;
42478;SDS011;28110;47.080;9.476;2023-04-24T12:16:49;0.98;;;0.57;;
42478;SDS011;28110;47.080;9.476;2023-04-24T12:19:21;2.00;;;0.68;;
42478;SDS011;28110;47.080;9.476;2023-04-24T12:22:00;1.63;;;0.60;;
42478;SDS011;28110;47.080;9.476;2023-04-24T12:24:30;1.48;;;0.70;;
42478;SDS011;28110;47.080;9.476;2023-04-24T12:26:57;1.00;;;0.70;;
42478;SDS011;28110;47.080;9.476;2023-04-24T12:29:23;0.82;;;0.60;;
42478;SDS011;28110;47.080;9.476;2023-04-24T12:31:50;1.02;;;0.70;;
42478;SDS011;28110;47.080;9.476;2023-04-24T12:34:23;1.23;;;0.70;;
42478;SDS011;28110;47.080;9.476;2023-04-24T12:36:50;2.15;;;0.68;;
42478;SDS011;28110;47.080;9.476;2023-04-24T12:39:16;0.77;;;0.70;;
42478;SDS011;28110;47.080;9.476;2023-04-24T12:41:51;1.42;;;0.70;;
42478;SDS011;28110;47.080;9.476;2023-04-24T12:44:28;2.60;;;0.80;;
42478;SDS011;28110;47.080;9.476;2023-04-24T12:46:59;1.25;;;0.80;;
42478;SDS011;28110;47.080;9.476;2023-04-24T12:49:25;1.75;;;0.80;;
42478;SDS011;28110;47.080;9.476;2023-04-24T12:51:51;1.83;;;0.80;;
42478;SDS011;28110;47.080;9.476;2023-04-24T12:54:16;1.10;;;0.80;;
42478;SDS011;28110;47.080;9.476;2023-04-24T12:56:42;0.95;;;0.80;;
42478;SDS011;28110;47.080;9.476;2023-04-24T12:59:07;1.23;;;0.70;;
42478;SDS011;28110;47.080;9.476;2023-04-24T13:01:33;2.20;;;0.80;;
42478;SDS011;28110;47.080;9.476;2023-04-24T13:03:58;2.10;;;0.70;;
42478;SDS011;28110;47.080;9.476;2023-04-24T13:06:24;0.83;;;0.60;;
42478;SDS011;28110;47.080;9.476;2023-04-24T13:08:51;0.60;;;0.60;;
42478;SDS011;28110;47.080;9.476;2023-04-24T13:11:17;1.15;;;0.60;;
42478;SDS011;28110;47.080;9.476;2023-04-24T13:13:43;2.67;;;0.70;;
42478;SDS011;28110;47.080;9.476;2023-04-24T13:16:08;2.00;;;0.65;;
42478;SDS011;28110;47.080;9.476;2023-04-24T13:18:34;3.60;;;0.93;;
42478;SDS011;28110;47.080;9.476;2023-04-24T13:21:00;1.38;;;0.80;;
42478;SDS011;28110;47.080;9.476;2023-04-24T13:23:25;1.37;;;0.73;;
42478;SDS011;28110;47.080;9.476;2023-04-24T13:25:51;0.85;;;0.70;;
42478;SDS011;28110;47.080;9.476;2023-04-24T13:28:16;1.53;;;0.60;;
42478;SDS011;28110;47.080;9.476;2023-04-24T13:30:42;3.03;;;0.90;;
42478;SDS011;28110;47.080;9.476;2023-04-24T13:33:08;1.65;;;0.82;;
42478;SDS011;28110;47.080;9.476;2023-04-24T13:35:34;4.93;;;1.10;;
42478;SDS011;28110;47.080;9.476;2023-04-24T13:37:59;3.90;;;0.90;;
42478;SDS011;28110;47.080;9.476;2023-04-24T13:40:26;7.30;;;0.90;;
42478;SDS011;28110;47.080;9.476;2023-04-24T13:42:52;7.75;;;2.30;;
42478;SDS011;28110;47.080;9.476;2023-04-24T13:45:17;5.63;;;1.27;;
42478;SDS011;28110;47.080;9.476;2023-04-24T13:47:43;3.78;;;1.15;;
42478;SDS011;28110;47.080;9.476;2023-04-24T13:50:09;2.83;;;1.10;;
42478;SDS011;28110;47.080;9.476;2023-04-24T13:52:35;3.53;;;1.30;;
42478;SDS011;28110;47.080;9.476;2023-04-24T13:55:00;12.80;;;1.73;;
42478;SDS011;28110;47.080;9.476;2023-04-24T13:57:26;5.80;;;1.00;;
42478;SDS011;28110;47.080;9.476;2023-04-24T13:59:53;2.85;;;1.30;;
42478;SDS011;28110;47.080;9.476;2023-04-24T14:02:20;1.40;;;1.15;;
42478;SDS011;28110;47.080;9.476;2023-04-24T14:04:46;5.50;;;1.10;;
42478;SDS011;28110;47.080;9.476;2023-04-24T14:07:13;2.63;;;1.00;;
42478;SDS011;28110;47.080;9.476;2023-04-24T14:09:38;3.73;;;1.17;;
42478;SDS011;28110;47.080;9.476;2023-04-24T14:12:04;2.27;;;1.30;;
42478;SDS011;28110;47.080;9.476;2023-04-24T14:14:30;9.98;;;1.08;;
42478;SDS011;28110;47.080;9.476;2023-04-24T14:16:56;2.58;;;1.00;;
42478;SDS011;28110;47.080;9.476;2023-04-24T14:19:22;1.43;;;0.93;;
42478;SDS011;28110;47.080;9.476;2023-04-24T14:21:47;2.65;;;1.00;;
42478;SDS011;28110;47.080;9.476;2023-04-24T14:24:13;2.87;;;0.83;;
42478;SDS011;28110;47.080;9.476;2023-04-24T14:26:38;5.80;;;1.00;;
42478;SDS011;28110;47.080;9.476;2023-04-24T14:29:04;5.85;;;1.30;;
42478;SDS011;28110;47.080;9.476;2023-04-24T14:31:30;1.63;;;0.98;;
42478;SDS011;28110;47.080;9.476;2023-04-24T14:33:56;2.53;;;1.10;;
42478;SDS011;28110;47.080;9.476;2023-04-24T14:36:22;2.38;;;0.82;;
42478;SDS011;28110;47.080;9.476;2023-04-24T14:38:48;2.20;;;1.00;;
42478;SDS011;28110;47.080;9.476;2023-04-24T14:41:14;3.45;;;0.80;;
42478;SDS011;28110;47.080;9.476;2023-04-24T14:43:39;0.80;;;0.80;;
42478;SDS011;28110;47.080;9.476;2023-04-24T14:46:05;0.73;;;0.70;;
42478;SDS011;28110;47.080;9.476;2023-04-24T14:48:31;2.67;;;0.80;;
42478;SDS011;28110;47.080;9.476;2023-04-24T14:50:56;4.57;;;0.80;;
42478;SDS011;28110;47.080;9.476;2023-04-24T14:53:22;5.60;;;0.90;;
42478;SDS011;28110;47.080;9.476;2023-04-24T14:55:47;3.30;;;0.80;;
42478;SDS011;28110;47.080;9.476;2023-04-24T14:58:13;10.95;;;1.08;;